Eastville, Virginia
Current Conditions -  °F | °C
As of 1:55 PM on Thursday 23 Oct 2014 (Local Time) from KMFV Reporting Station
Overcast Overcast  
Wind Chill: 59°   Ceiling: 3300
Heat Index: 59°   Visibility: 10mi
Dew Point: 45°   Wind: 16mph
Humidity: 59%   Direction: 310°NW
Pressure: 29.82"   Gusts: 29mph
Location:  37.35°N, 75.95°W
Report Text: KMFV 231755Z AUTO 31014G25KT 10SM OVC033 15/07 A2982 RMK AO2
Loading
Personal Weather Stations






























Interactive Weather Map
Tropical Storm Tracking
New forecast layout! Learn more

10-Day Weather Forecast

Advertisements
Track Severe Weather on mobile